Time;durP1;ratioP1;P1;durP2;ratioP2;P2;SDS_P1;SDS_P2;PMS_P1;PMS_P2;Temp;Humidity;BMP_temperature;BMP_pressure;BME280_temperature;BME280_humidity;BME280_pressure;Samples;Min_cycle;Max_cycle;Signal;HPM_P1;HPM_P2
2022/04/22 00:01:14;;;;;;;32.40;16.15;;;;;;;30.12;61.16;100854.38;5043118;28;69509;-35
2022/04/22 00:03:46;;;;;;;30.83;15.98;;;;;;;30.50;62.74;100930.16;5040120;28;65907;-34
2022/04/22 00:06:17;;;;;;;21.95;14.20;;;;;;;30.53;62.99;100938.91;5040441;28;69971;-35
2022/04/22 00:08:48;;;;;;;26.80;14.15;;;;;;;30.60;63.23;100937.81;5039214;28;66025;-35
2022/04/22 00:11:30;;;;;;;25.70;12.40;;;;;;;30.59;63.05;100938.88;5035403;28;70759;-34
2022/04/22 00:14:06;;;;;;;33.10;13.50;;;;;;;30.61;62.80;100955.72;5031202;28;65214;-35
2022/04/22 00:16:36;;;;;;;22.60;11.43;;;;;;;30.64;61.28;100949.88;5035045;28;70499;-35
2022/04/22 00:19:07;;;;;;;33.25;11.85;;;;;;;30.34;63.00;100908.19;5042657;28;67037;-34
2022/04/22 00:21:41;;;;;;;22.80;11.88;;;;;;;30.67;63.12;100965.69;5042284;28;70578;-35
2022/04/22 00:24:12;;;;;;;22.10;11.05;;;;;;;30.69;62.70;100970.88;5042040;28;66809;-35
2022/04/22 00:26:43;;;;;;;16.45;11.30;;;;;;;30.73;62.02;100966.72;5022021;28;70128;-35
2022/04/22 00:29:13;;;;;;;30.70;12.40;;;;;;;30.70;63.33;100973.38;5034754;28;66298;-35
2022/04/22 00:31:44;;;;;;;20.52;11.48;;;;;;;30.71;63.39;100974.22;5035381;28;70093;-35
2022/04/22 00:34:15;;;;;;;26.40;12.68;;;;;;;30.64;63.10;100963.41;5021718;28;66248;-35
2022/04/22 00:36:46;;;;;;;23.08;12.95;;;;;;;30.81;62.77;100979.16;5028771;28;70442;-35
2022/04/22 00:39:17;;;;;;;35.97;13.77;;;;;;;30.73;63.01;100970.25;5042401;28;66074;-35
2022/04/22 00:41:48;;;;;;;50.70;15.77;;;;;;;30.90;63.08;100991.44;5040171;28;70272;-33
2022/04/22 00:44:18;;;;;;;43.33;13.60;;;;;;;30.96;61.95;100998.69;5038681;28;65502;-34
2022/04/22 00:46:50;;;;;;;27.85;12.05;;;;;;;31.08;59.71;100996.91;5040295;28;70344;-34
2022/04/22 00:49:21;;;;;;;20.13;11.15;;;;;;;31.17;59.72;100997.47;5032809;28;66383;-34
2022/04/22 00:51:52;;;;;;;19.73;10.13;;;;;;;31.26;58.99;101008.88;5037192;28;70301;-35
2022/04/22 00:54:23;;;;;;;18.08;9.80;;;;;;;31.31;58.96;101011.75;5036096;28;65737;-34
2022/04/22 00:56:54;;;;;;;19.00;10.10;;;;;;;31.05;58.41;100964.84;5021982;28;70279;-34
2022/04/22 00:59:26;;;;;;;21.30;10.55;;;;;;;31.43;58.65;101023.59;5018718;28;66541;-34
2022/04/22 01:01:57;;;;;;;18.52;9.38;;;;;;;31.23;58.50;100983.06;5018887;28;71019;-35
2022/04/22 01:10:19;;;;;;;20.17;9.32;;;;;;;31.58;57.64;101029.50;5020309;28;65753;-36
2022/04/22 01:12:50;;;;;;;;;;;;;;;31.29;59.67;101032.84;5035348;28;70247;-33
2022/04/22 01:15:22;;;;;;;14.38;8.43;;;;;;;31.53;57.54;101015.78;5018596;28;66358;-34
2022/04/22 01:17:53;;;;;;;;;;;;;;;31.36;59.00;101026.34;5035315;28;70239;-34
2022/04/22 01:20:23;;;;;;;11.27;7.82;;;;;;;31.72;57.50;101029.41;5020761;28;65730;-34
2022/04/22 01:22:54;;;;;;;11.57;8.00;;;;;;;31.78;56.97;101028.50;5019627;28;70002;-33
2022/04/22 01:25:25;;;;;;;10.97;7.97;;;;;;;31.80;57.14;101032.66;5021462;28;66845;-34
2022/04/22 01:27:57;;;;;;;12.23;8.35;;;;;;;31.86;56.81;101032.81;5021209;28;70187;-35
2022/04/22 01:30:28;;;;;;;12.98;8.25;;;;;;;31.81;57.00;101017.19;5032049;28;65590;-35
2022/04/22 01:33:00;;;;;;;14.10;7.77;;;;;;;31.45;56.19;100964.53;5041422;28;70610;-33
2022/04/22 01:35:31;;;;;;;10.13;7.80;;;;;;;31.96;56.70;101036.72;5040851;28;66437;-34
2022/04/22 01:38:03;;;;;;;13.63;8.27;;;;;;;31.90;55.95;101026.72;5038901;28;70607;-34
2022/04/22 01:40:33;;;;;;;10.02;6.97;;;;;;;31.97;56.20;101027.50;5040744;28;66266;-34
2022/04/22 01:43:05;;;;;;;8.65;6.75;;;;;;;31.99;55.85;101021.88;5039594;28;70650;-33
2022/04/22 01:45:36;;;;;;;9.63;7.43;;;;;;;31.96;56.16;101009.59;5039945;28;66017;-34
2022/04/22 01:48:07;;;;;;;11.43;7.32;;;;;;;32.10;55.81;101031.16;5041046;28;69257;-34
2022/04/22 01:50:38;;;;;;;12.32;8.02;;;;;;;32.11;55.73;101027.38;5038537;28;66800;-34
2022/04/22 01:53:09;;;;;;;11.97;7.07;;;;;;;32.15;55.88;101025.84;5040947;28;69876;-34
2022/04/22 01:55:39;;;;;;;15.05;7.18;;;;;;;32.18;55.63;101022.69;5040396;28;65552;-36
2022/04/22 01:58:10;;;;;;;9.00;6.72;;;;;;;32.22;55.26;101027.44;5039041;28;70785;-35
2022/04/22 02:00:41;;;;;;;14.55;6.97;;;;;;;32.26;55.33;101035.97;5040513;28;65925;-35
2022/04/22 02:03:12;;;;;;;7.30;6.53;;;;;;;32.21;55.32;101014.13;5040932;28;69595;-34
2022/04/22 02:05:43;;;;;;;10.05;6.85;;;;;;;32.31;55.05;101030.69;5039726;28;65384;-38
2022/04/22 02:08:14;;;;;;;9.77;6.82;;;;;;;32.33;54.76;101031.28;5033502;28;70451;-34
2022/04/22 02:10:46;;;;;;;10.60;6.90;;;;;;;32.36;54.71;101014.56;5026619;28;65484;-34
2022/04/22 02:13:17;;;;;;;15.02;6.70;;;;;;;32.39;54.75;101016.81;5019609;28;70283;-34
2022/04/22 02:15:48;;;;;;;14.05;7.55;;;;;;;32.41;54.99;101032.88;5020055;28;67695;-33
2022/04/22 02:18:19;;;;;;;6.93;6.43;;;;;;;32.43;54.78;101020.75;5019928;28;71270;-34
2022/04/22 02:20:50;;;;;;;8.90;7.17;;;;;;;32.35;54.41;101007.47;5019888;28;66624;-34
2022/04/22 02:23:21;;;;;;;9.52;7.00;;;;;;;32.51;54.45;101026.94;5019322;28;70935;-35
2022/04/22 02:25:52;;;;;;;10.10;6.65;;;;;;;32.52;53.97;101023.19;5018908;28;65357;-34
2022/04/22 02:28:31;;;;;;;7.82;6.15;;;;;;;32.56;54.09;101030.63;5020124;28;70097;-34
2022/04/22 02:31:10;;;;;;;8.18;6.28;;;;;;;31.79;54.01;100899.97;5036662;28;65425;-34
2022/04/22 02:33:41;;;;;;;6.80;6.20;;;;;;;32.30;53.91;100972.03;5039233;28;70553;-33
2022/04/22 02:36:15;;;;;;;11.43;6.20;;;;;;;32.64;53.91;101021.34;5039945;28;65327;-34
2022/04/22 02:38:46;;;;;;;6.90;6.07;;;;;;;32.55;53.55;100998.28;5038317;28;70514;-33
2022/04/22 02:46:56;;;;;;;6.70;6.18;;;;;;;32.73;53.56;101014.53;5019663;28;65816;-34
2022/04/22 02:49:30;;;;;;;7.28;6.40;;;;;;;32.77;53.10;101026.59;5017224;28;69598;-35
2022/04/22 02:52:01;;;;;;;;;;;;;;;32.46;53.84;101012.16;5019141;28;66304;-35
2022/04/22 02:54:34;;;;;;;7.10;6.38;;;;;;;32.77;53.47;101021.16;5019964;28;69282;-35
2022/04/22 02:57:07;;;;;;;7.68;6.00;;;;;;;32.84;53.09;101015.63;5016311;28;66106;-34
2022/04/22 02:59:40;;;;;;;6.53;5.63;;;;;;;32.87;53.14;101024.13;5018040;28;69734;-34
2022/04/22 03:02:11;;;;;;;10.13;5.68;;;;;;;32.78;52.83;101001.09;5022646;28;66239;-34
2022/04/22 03:04:43;;;;;;;7.72;5.82;;;;;;;32.81;52.83;101006.06;5024086;28;69871;-35
2022/04/22 03:07:14;;;;;;;12.43;6.32;;;;;;;32.92;52.81;101013.41;5032442;28;66527;-34
2022/04/22 03:09:45;;;;;;;;;;;;;;;32.62;53.48;101018.00;5043157;28;70799;-34
2022/04/22 03:12:16;;;;;;;6.90;5.70;;;;;;;32.82;52.61;101001.44;5041443;28;66441;-35
2022/04/22 03:14:47;;;;;;;8.10;6.10;;;;;;;32.97;52.67;101009.19;5042017;28;69898;-35
2022/04/22 03:17:19;;;;;;;7.88;6.47;;;;;;;32.97;52.50;101007.28;5040342;28;65544;-34
2022/04/22 03:19:50;;;;;;;6.40;5.90;;;;;;;33.01;52.67;101002.25;5025807;28;68929;-35
2022/04/22 03:22:21;;;;;;;6.23;5.70;;;;;;;33.02;52.50;101001.22;5021832;28;65532;-35
2022/04/22 03:24:52;;;;;;;8.03;5.70;;;;;;;32.60;52.35;100944.13;5019915;28;71692;-34
2022/04/22 03:27:23;;;;;;;8.32;5.90;;;;;;;32.89;52.40;100992.13;5022079;28;65622;-34
2022/04/22 03:29:54;;;;;;;6.47;5.95;;;;;;;33.01;52.48;101005.78;5028518;28;70719;-33
2022/04/22 03:32:25;;;;;;;9.35;6.50;;;;;;;33.10;52.42;101019.91;5041082;28;65926;-34
2022/04/22 03:34:56;;;;;;;7.00;6.35;;;;;;;33.06;52.42;101018.69;5041124;28;71794;-35
2022/04/22 03:37:26;;;;;;;7.03;6.22;;;;;;;33.12;52.16;101015.88;5041407;28;66284;-35
2022/04/22 03:39:57;;;;;;;6.55;6.05;;;;;;;33.13;52.33;101011.28;5040983;28;69139;-34
2022/04/22 03:42:28;;;;;;;7.85;6.82;;;;;;;33.12;52.26;101005.00;5041337;28;66106;-34
2022/04/22 03:44:59;;;;;;;6.75;6.15;;;;;;;33.16;52.31;101018.97;5041257;28;69104;-34
2022/04/22 03:47:30;;;;;;;8.55;6.05;;;;;;;33.21;52.03;101016.38;5040448;28;65942;-34
2022/04/22 03:50:01;;;;;;;6.47;5.83;;;;;;;33.22;52.00;101018.03;5041840;28;70330;-35
2022/04/22 03:52:31;;;;;;;7.57;5.80;;;;;;;33.26;51.92;101002.06;5039683;28;65232;-34
2022/04/22 03:55:02;;;;;;;8.82;6.40;;;;;;;33.22;51.73;100996.28;5042872;28;69146;-34
2022/04/22 04:00:22;;;;;;;6.70;5.93;;;;;;;33.30;51.84;100992.41;5040900;28;69575;-35
2022/04/22 04:02:53;;;;;;;6.75;6.18;;;;;;;33.28;51.87;100995.34;5057524;28;67830;-34
2022/04/22 04:05:24;;;;;;;6.72;6.13;;;;;;;33.11;51.71;100948.16;5040154;28;69295;-35
2022/04/22 04:07:55;;;;;;;7.15;6.43;;;;;;;33.35;51.44;100985.19;5042599;28;67724;-34
2022/04/22 04:16:04;;;;;;;6.72;6.03;;;;;;;33.36;51.49;100959.66;5041717;28;70079;-34
2022/04/22 04:18:37;;;;;;;7.55;6.55;;;;;;;33.46;51.46;100980.84;5042672;28;65887;-35
2022/04/22 04:24:05;;;;;;;6.22;5.72;;;;;;;33.35;51.21;100933.53;5041785;28;65487;-34
2022/04/22 04:26:36;;;;;;;;;;;;;;;33.21;51.80;100951.13;5042572;28;70371;-34
2022/04/22 04:29:08;;;;;;;6.97;6.38;;;;;;;33.53;51.31;100950.81;5041453;28;65103;-35
2022/04/22 04:31:39;;;;;;;6.50;5.97;;;;;;;33.53;51.07;100946.22;5027456;28;69907;-35
2022/04/22 04:34:10;;;;;;;6.80;6.18;;;;;;;33.58;51.28;100945.50;5020788;28;66089;-33
2022/04/22 04:36:41;;;;;;;8.68;6.68;;;;;;;33.59;51.16;100930.81;5019777;28;69593;-34
2022/04/22 04:39:11;;;;;;;7.32;6.28;;;;;;;33.63;51.00;100940.19;5022747;28;65486;-34
2022/04/22 04:41:42;;;;;;;8.65;6.10;;;;;;;33.64;51.05;100939.09;5020781;28;69702;-34
2022/04/22 04:44:13;;;;;;;7.53;6.70;;;;;;;33.67;50.93;100927.75;5022566;28;66188;-35
2022/04/22 04:46:44;;;;;;;9.73;6.40;;;;;;;33.69;50.92;100931.06;5021299;28;70249;-36
2022/04/22 04:49:14;;;;;;;6.78;6.18;;;;;;;33.61;50.84;100906.13;5036039;28;66386;-34
2022/04/22 04:51:46;;;;;;;8.47;6.47;;;;;;;33.73;50.95;100923.25;5038998;28;70218;-35
2022/04/22 04:54:16;;;;;;;11.65;6.30;;;;;;;33.74;50.76;100908.56;5041511;28;65828;-34
2022/04/22 04:56:50;;;;;;;8.03;5.50;;;;;;;33.74;50.82;100906.69;5040019;28;70191;-34
2022/04/22 04:59:22;;;;;;;8.02;6.15;;;;;;;33.57;50.67;100862.22;5041356;28;66190;-35
2022/04/22 05:01:53;;;;;;;7.18;6.13;;;;;;;33.78;50.64;100891.53;5038803;28;70425;-34
2022/04/22 05:04:25;;;;;;;9.07;6.00;;;;;;;33.39;50.79;100816.97;5040469;28;66309;-35
2022/04/22 05:06:56;;;;;;;9.52;6.20;;;;;;;33.80;50.63;100875.81;5040300;28;69980;-36
2022/04/22 05:09:27;;;;;;;;;;;;;;;33.52;51.14;100870.28;5040673;28;65497;-35
2022/04/22 05:11:58;;;;;;;7.22;6.07;;;;;;;33.76;50.51;100844.69;5040265;28;70860;-35
2022/04/22 05:14:28;;;;;;;6.63;6.05;;;;;;;33.88;50.57;100846.53;5040399;28;66590;-36
2022/04/22 05:16:59;;;;;;;6.68;6.18;;;;;;;33.89;50.44;100845.50;5040146;28;70483;-35
2022/04/22 05:19:30;;;;;;;6.13;5.63;;;;;;;33.91;50.46;100841.47;5040474;28;67272;-34
2022/04/22 05:22:01;;;;;;;6.88;5.78;;;;;;;33.93;50.26;100831.13;5039591;28;69789;-35
2022/04/22 05:24:32;;;;;;;6.28;5.88;;;;;;;33.96;50.17;100832.56;5038555;28;65950;-35
2022/04/22 05:27:04;;;;;;;6.43;6.03;;;;;;;33.84;50.03;100820.91;5040849;28;69256;-35
2022/04/22 05:32:39;;;;;;;7.75;5.90;;;;;;;34.03;49.93;100833.25;5040556;28;69180;-35
2022/04/22 05:35:10;;;;;;;6.00;5.68;;;;;;;34.07;50.19;100829.00;5040320;28;66044;-35
2022/04/22 05:37:53;;;;;;;7.35;6.65;;;;;;;34.12;49.85;100820.91;5041548;28;70970;-34
2022/04/22 05:40:33;;;;;;;6.95;6.20;;;;;;;33.75;49.50;100739.66;5041987;28;66958;-35
2022/04/22 05:43:08;;;;;;;6.88;6.28;;;;;;;34.06;49.89;100789.25;5020217;28;70461;-35
2022/04/22 05:45:39;;;;;;;6.85;6.45;;;;;;;34.19;49.88;100805.28;5019688;28;66019;-35
2022/04/22 05:48:10;;;;;;;6.50;5.97;;;;;;;34.22;49.93;100801.25;5019026;28;69711;-36
2022/04/22 05:50:42;;;;;;;6.77;6.13;;;;;;;34.24;49.85;100797.19;5030983;28;67098;-36
2022/04/22 05:53:13;;;;;;;7.03;6.10;;;;;;;34.31;49.89;100796.22;5040872;28;69516;-35
2022/04/22 05:55:45;;;;;;;7.35;6.03;;;;;;;34.30;49.66;100784.50;5039375;28;65515;-34
2022/04/22 05:58:17;;;;;;;6.65;6.10;;;;;;;34.35;49.47;100775.56;5039733;28;70182;-36
2022/04/22 06:00:48;;;;;;;7.18;6.10;;;;;;;34.34;49.55;100773.94;5041327;28;65978;-35
2022/04/22 06:03:23;;;;;;;6.63;6.07;;;;;;;34.38;49.56;100767.75;5039017;28;70322;-35
2022/04/22 06:05:54;;;;;;;7.00;6.40;;;;;;;34.39;49.63;100754.97;5041203;28;66096;-36
2022/04/22 06:11:14;;;;;;;6.47;6.07;;;;;;;34.44;49.20;100746.88;5040059;28;66215;-35
2022/04/22 06:13:47;;;;;;;8.35;6.00;;;;;;;34.49;49.51;100752.38;5023918;28;70230;-34
2022/04/22 06:16:20;;;;;;;6.43;5.88;;;;;;;34.53;49.03;100750.84;5018511;28;66176;-35
2022/04/22 06:18:51;;;;;;;7.50;5.72;;;;;;;34.53;49.09;100739.94;5020722;28;70095;-35
2022/04/22 06:21:22;;;;;;;7.60;5.97;;;;;;;34.56;49.02;100739.47;5019399;28;66414;-35
2022/04/22 06:23:53;;;;;;;11.03;6.00;;;;;;;34.58;49.18;100731.88;5020563;28;71140;-36
2022/04/22 06:26:24;;;;;;;6.22;5.72;;;;;;;34.61;49.00;100725.13;5020885;28;66247;-36
2022/04/22 06:28:57;;;;;;;7.13;6.60;;;;;;;34.66;48.72;100709.66;5017942;28;69614;-35
2022/04/22 06:31:29;;;;;;;6.90;6.05;;;;;;;34.68;48.77;100715.66;5038847;28;66560;-35
2022/04/22 06:34:00;;;;;;;5.93;5.53;;;;;;;34.41;48.88;100649.34;5038887;28;70057;-35
2022/04/22 06:36:32;;;;;;;7.18;5.72;;;;;;;34.32;48.73;100629.84;5038671;28;65943;-34
2022/04/22 06:39:03;;;;;;;6.25;5.75;;;;;;;34.83;48.53;100690.56;5039255;28;69498;-34
2022/04/22 06:47:16;;;;;;;6.47;5.88;;;;;;;34.96;48.77;100683.06;5019311;28;65695;-35
2022/04/22 06:49:47;;;;;;;8.00;6.50;;;;;;;34.96;48.36;100678.44;5019970;28;70148;-34
2022/04/22 06:52:19;;;;;;;6.03;5.63;;;;;;;35.02;48.44;100677.44;5018784;28;65657;-35
2022/04/22 06:54:51;;;;;;;;;;;;;;;34.79;48.55;100681.22;5020446;28;69638;-35
2022/04/22 06:57:22;;;;;;;6.60;6.00;;;;;;;35.08;48.16;100672.91;5021063;28;65507;-35
2022/04/22 06:59:53;;;;;;;6.97;6.35;;;;;;;35.12;48.31;100674.03;5018574;28;70843;-35
2022/04/22 07:02:25;;;;;;;6.50;5.87;;;;;;;35.13;48.03;100652.00;5017964;28;66377;-36
2022/04/22 07:04:56;;;;;;;5.95;5.45;;;;;;;35.21;48.04;100663.50;5020325;28;68993;-35
2022/04/22 07:07:27;;;;;;;6.07;5.47;;;;;;;35.23;48.41;100651.25;5018539;28;67148;-36
2022/04/22 07:09:58;;;;;;;6.07;5.68;;;;;;;35.16;47.85;100625.28;5019748;28;70914;-35
2022/04/22 07:12:31;;;;;;;6.28;5.47;;;;;;;35.28;48.21;100642.31;5019377;28;65825;-35
2022/04/22 07:15:06;;;;;;;5.38;4.97;;;;;;;35.38;47.64;100630.69;5019421;28;70676;-35
2022/04/22 07:17:40;;;;;;;6.80;5.30;;;;;;;35.42;48.05;100629.09;5016899;28;65407;-35
2022/04/22 07:20:13;;;;;;;13.15;5.75;;;;;;;35.47;48.01;100629.97;5019394;28;70336;-34
2022/04/22 07:22:45;;;;;;;11.48;6.07;;;;;;;35.39;48.15;100600.44;5017404;28;66342;-35
2022/04/22 07:25:17;;;;;;;6.10;5.55;;;;;;;35.09;47.73;100546.44;5019180;28;70187;-35
2022/04/22 07:27:49;;;;;;;5.90;5.50;;;;;;;35.61;47.79;100618.66;5018978;28;66923;-34
2022/04/22 07:30:21;;;;;;;5.32;4.70;;;;;;;35.56;47.43;100609.34;5030045;28;69053;-34
2022/04/22 07:32:52;;;;;;;5.03;4.72;;;;;;;35.70;47.43;100623.41;5038402;28;65237;-36
2022/04/22 07:35:23;;;;;;;5.38;4.88;;;;;;;35.73;47.40;100627.50;5040186;28;70001;-34
2022/04/22 07:37:54;;;;;;;5.93;5.38;;;;;;;35.78;47.23;100622.09;5039704;28;67694;-35
2022/04/22 07:40:25;;;;;;;6.50;5.30;;;;;;;35.82;47.68;100614.22;5038842;28;70068;-35
2022/04/22 07:48:45;;;;;;;6.40;4.80;;;;;;;35.83;46.97;100600.31;5040151;28;65936;-35
2022/04/22 07:51:16;;;;;;;10.38;5.32;;;;;;;35.95;47.32;100608.31;5042028;28;69652;-34
2022/04/22 07:53:47;;;;;;;5.63;5.20;;;;;;;35.93;47.16;100608.56;5042848;28;65586;-35
2022/04/22 07:56:18;;;;;;;7.77;5.40;;;;;;;36.03;47.54;100605.91;5042748;28;69431;-35
2022/04/22 07:58:50;;;;;;;9.90;5.15;;;;;;;36.00;47.15;100598.25;5030143;28;66661;-35
2022/04/22 08:01:21;;;;;;;5.60;5.15;;;;;;;36.13;47.57;100615.28;5029812;28;70475;-35
2022/04/22 08:03:53;;;;;;;5.70;5.20;;;;;;;36.16;46.96;100615.59;5025104;28;66433;-34
2022/04/22 08:06:24;;;;;;;8.32;4.80;;;;;;;36.16;47.01;100604.69;5037369;28;70401;-35
2022/04/22 08:08:55;;;;;;;7.72;5.00;;;;;;;36.10;46.91;100588.50;5042906;28;65672;-35
2022/04/22 08:11:27;;;;;;;5.23;4.23;;;;;;;36.22;46.79;100608.28;5041742;28;70058;-34
2022/04/22 08:13:59;;;;;;;5.45;4.97;;;;;;;36.27;46.63;100611.00;5043379;28;66695;-35
2022/04/22 08:16:31;;;;;;;4.82;4.53;;;;;;;36.31;46.73;100606.69;5042922;28;69403;-36
2022/04/22 08:19:02;;;;;;;7.15;4.57;;;;;;;36.30;47.20;100593.28;5041203;28;66339;-35
2022/04/22 08:21:33;;;;;;;11.05;4.60;;;;;;;36.31;47.28;100595.75;5041273;28;69948;-35
2022/04/22 08:24:06;;;;;;;4.57;4.18;;;;;;;36.35;46.70;100601.50;5041795;28;66198;-35
2022/04/22 08:26:37;;;;;;;4.53;4.13;;;;;;;36.38;46.59;100590.84;5036442;28;70580;-35
2022/04/22 08:29:08;;;;;;;4.50;4.20;;;;;;;36.38;46.94;100579.94;5031205;28;65468;-34
2022/04/22 08:31:38;;;;;;;4.90;4.50;;;;;;;36.40;46.68;100577.75;5036823;28;70334;-35
2022/04/22 08:34:09;;;;;;;5.73;4.00;;;;;;;36.41;46.59;100579.44;5041136;28;66636;-35
2022/04/22 08:36:40;;;;;;;5.25;4.75;;;;;;;36.43;47.03;100563.56;5041304;28;70126;-34
2022/04/22 08:39:12;;;;;;;4.68;4.28;;;;;;;36.44;46.35;100570.69;5040689;28;65620;-34
2022/04/22 08:41:42;;;;;;;4.63;4.18;;;;;;;36.47;46.78;100567.44;5041436;28;70037;-35
2022/04/22 08:44:13;;;;;;;4.47;4.07;;;;;;;36.47;46.70;100572.91;5041972;28;66270;-34
2022/04/22 08:52:26;;;;;;;7.70;3.92;;;;;;;36.51;46.23;100570.44;5042136;28;70227;-35
2022/04/22 08:54:58;;;;;;;3.85;3.55;;;;;;;36.44;46.60;100561.66;5041180;28;65521;-35
2022/04/22 08:57:29;;;;;;;6.80;3.95;;;;;;;36.53;46.24;100572.94;5040027;28;70132;-34
2022/04/22 09:00:02;;;;;;;4.15;3.70;;;;;;;36.52;46.42;100568.53;5041904;28;66270;-34
2022/04/22 09:02:33;;;;;;;4.75;3.75;;;;;;;36.46;46.78;100563.03;5042185;28;69657;-34
2022/04/22 09:05:06;;;;;;;8.57;5.30;;;;;;;36.54;47.06;100571.84;5040583;28;66137;-35
2022/04/22 09:07:42;;;;;;;5.55;3.60;;;;;;;35.82;46.50;100456.75;5041927;28;70120;-34
2022/04/22 09:10:12;;;;;;;4.35;3.95;;;;;;;36.43;46.51;100554.56;5041345;28;66697;-34
2022/04/22 09:12:52;;;;;;;3.67;3.38;;;;;;;36.53;46.20;100564.72;5041702;28;70114;-34
2022/04/22 09:15:25;;;;;;;4.93;4.22;;;;;;;36.19;46.35;100510.47;5041699;28;66350;-34
2022/04/22 09:18:08;;;;;;;6.13;4.43;;;;;;;36.47;46.88;100559.25;5040944;28;69921;-36
2022/04/22 09:20:39;;;;;;;4.57;4.18;;;;;;;36.50;46.46;100559.78;5041622;28;66519;-35
2022/04/22 09:23:23;;;;;;;5.10;4.72;;;;;;;36.41;46.57;100548.53;5040834;28;70093;-35
2022/04/22 09:25:54;;;;;;;5.82;4.30;;;;;;;36.45;46.38;100547.75;5041386;28;66103;-37
2022/04/22 09:28:25;;;;;;;8.13;4.22;;;;;;;36.56;47.03;100564.22;5039631;28;70098;-33
2022/04/22 09:31:00;;;;;;;5.83;4.13;;;;;;;36.56;46.78;100567.78;5040211;28;65507;-34
2022/04/22 09:33:43;;;;;;;7.07;4.47;;;;;;;36.41;46.65;100546.66;5041277;28;70199;-35
2022/04/22 09:45:01;;;;;;;5.95;4.55;;;;;;;36.54;46.41;100582.78;5041906;28;70087;-34
2022/04/22 09:47:33;;;;;;;9.90;5.03;;;;;;;36.51;47.10;100581.38;5041341;28;65132;-35
2022/04/22 09:50:11;;;;;;;4.55;4.20;;;;;;;36.08;46.99;100516.97;5038944;28;68461;-35
2022/04/22 09:52:46;;;;;;;6.28;4.70;;;;;;;36.47;46.71;100578.34;5040608;28;66150;-35
2022/04/22 09:55:19;;;;;;;14.35;4.70;;;;;;;36.38;46.69;100568.19;5040100;28;70336;-35
2022/04/22 09:57:56;;;;;;;5.22;4.72;;;;;;;36.49;47.05;100586.28;5023641;28;66492;-34
2022/04/22 10:00:32;;;;;;;6.80;4.53;;;;;;;36.47;47.09;100593.94;5040936;28;69973;-34
2022/04/22 10:03:19;;;;;;;;;;;;;;;36.14;47.45;100595.94;5016656;28;65061;-35
2022/04/22 10:06:06;;;;;;;6.82;4.60;;;;;;;36.41;47.43;100584.03;5017457;28;70911;-34
2022/04/22 10:08:56;;;;;;;5.72;4.30;;;;;;;36.03;47.42;100517.75;5021011;28;66026;-33
2022/04/22 10:11:48;;;;;;;4.67;4.27;;;;;;;36.25;47.15;100553.13;5018997;28;43487;-34
2022/04/22 10:14:43;;;;;;;7.82;4.38;;;;;;;36.30;47.21;100572.25;5019481;28;66187;-35
2022/04/22 10:17:15;;;;;;;5.95;4.40;;;;;;;36.27;47.44;100575.50;5020003;28;70537;-36
2022/04/22 10:19:46;;;;;;;4.40;3.97;;;;;;;36.34;47.44;100594.41;5020200;28;67133;-33
2022/04/22 10:22:19;;;;;;;7.23;4.53;;;;;;;36.32;47.33;100604.75;5021102;28;70118;-35
2022/04/22 10:24:50;;;;;;;4.80;4.10;;;;;;;35.90;47.77;100538.13;5024941;28;64894;-35
2022/04/22 10:27:21;;;;;;;5.25;4.28;;;;;;;36.28;48.01;100596.28;5019391;28;69860;-34
2022/04/22 10:29:53;;;;;;;5.72;5.13;;;;;;;35.75;49.01;100565.31;5025395;28;66292;-34
2022/04/22 10:32:27;;;;;;;6.80;5.40;;;;;;;35.71;49.92;100616.03;5035705;28;70161;-35
2022/04/22 10:34:59;;;;;;;18.42;8.05;;;;;;;35.52;51.21;100616.41;5032576;28;66189;-35
2022/04/22 10:37:34;;;;;;;33.22;19.50;;;;;;;35.38;52.08;100606.13;5030666;28;69792;-35
2022/04/22 10:40:16;;;;;;;41.05;28.45;;;;;;;35.26;52.85;100612.56;5020105;28;65556;-34
2022/04/22 10:42:52;;;;;;;42.35;24.13;;;;;;;34.81;52.88;100566.53;5019414;28;70449;-39
2022/04/22 10:49:14;;;;;;;28.40;17.23;;;;;;;34.76;53.11;100629.13;5025065;28;69247;-37
2022/04/22 10:52:13;;;;;;;14.80;10.75;;;;;;;34.65;53.46;100634.44;5039664;28;66078;-36
2022/04/22 10:54:54;;;;;;;10.77;9.20;;;;;;;34.64;53.14;100632.00;5038160;28;70121;-35
2022/04/22 10:57:27;;;;;;;9.82;8.38;;;;;;;34.15;53.29;100566.47;5039344;28;66536;-37
2022/04/22 11:00:09;;;;;;;9.45;7.00;;;;;;;34.57;53.21;100640.31;5040270;28;70020;-36
2022/04/22 11:02:43;;;;;;;;;;;;;;;34.19;54.32;100641.94;5036827;28;66129;-36
2022/04/22 11:05:18;;;;;;;17.15;6.78;;;;;;;34.47;54.71;100648.34;5022202;28;70879;-36
2022/04/22 11:07:56;;;;;;;11.23;6.82;;;;;;;34.44;54.42;100643.41;5024428;28;66377;-37
2022/04/22 11:10:46;;;;;;;7.03;6.32;;;;;;;34.27;53.81;100659.75;5036368;28;69644;-35
2022/04/22 11:13:41;;;;;;;10.05;8.98;;;;;;;34.18;53.32;100651.16;5039493;28;66215;-36
2022/04/22 11:16:27;;;;;;;18.00;8.37;;;;;;;34.22;53.44;100662.41;5024724;28;70085;-36
2022/04/22 11:19:20;;;;;;;9.07;7.07;;;;;;;33.40;53.18;100535.00;5024329;28;66158;-35
2022/04/22 11:21:53;;;;;;;8.55;7.68;;;;;;;33.73;52.99;100594.06;5020369;28;69314;-36
2022/04/22 11:24:25;;;;;;;8.77;6.07;;;;;;;34.12;53.31;100667.66;5035989;28;65321;-38
2022/04/22 11:27:11;;;;;;;7.32;5.38;;;;;;;34.01;53.60;100669.38;5034220;28;69904;-39
2022/04/22 11:29:45;;;;;;;7.90;6.15;;;;;;;34.04;52.98;100666.16;5035354;28;65826;-36
2022/04/22 11:32:21;;;;;;;7.07;5.57;;;;;;;33.93;53.12;100664.31;5030342;28;69256;-36
2022/04/22 11:35:13;;;;;;;8.93;5.47;;;;;;;33.99;53.21;100685.97;5023763;28;66010;-36
2022/04/22 11:37:44;;;;;;;10.98;5.55;;;;;;;33.90;53.30;100690.13;5069541;28;70050;-36
2022/04/22 11:40:21;;;;;;;9.95;6.30;;;;;;;33.89;53.47;100691.22;5020045;28;66776;-36
2022/04/22 11:42:54;;;;;;;18.38;8.10;;;;;;;33.83;53.13;100691.38;5030010;28;70010;-38
2022/04/22 11:45:49;;;;;;;13.45;6.40;;;;;;;33.86;53.49;100712.66;4995843;28;65551;-36
2022/04/22 11:48:46;;;;;;;6.93;5.78;;;;;;;33.66;53.53;100703.06;4992148;28;70141;-36
2022/04/22 11:51:19;;;;;;;;;;;;;;;33.44;53.95;100727.34;4995526;28;65815;-36
2022/04/22 11:53:53;;;;;;;16.90;8.18;;;;;;;33.73;53.58;100720.03;4996336;28;70304;-36
2022/04/22 11:56:24;;;;;;;10.23;7.07;;;;;;;33.68;53.54;100719.94;4999222;28;65485;-37
2022/04/22 11:58:56;;;;;;;22.83;16.70;;;;;;;33.44;53.63;100693.88;4997253;28;71481;-36
2022/04/22 12:05:32;;;;;;;10.45;8.50;;;;;;;33.66;53.52;100751.19;4992875;28;69479;-35
2022/04/22 12:10:23;;;;;;;12.18;6.50;;;;;;;33.63;54.38;100767.97;4994884;28;69916;-35
2022/04/22 12:12:56;;;;;;;12.85;6.47;;;;;;;33.47;54.33;100764.09;4996443;28;65649;-35
2022/04/22 12:15:28;;;;;;;12.82;6.13;;;;;;;33.54;54.13;100781.13;4992724;28;69317;-35
2022/04/22 12:18:35;;;;;;;;;;;;;;;33.23;55.20;100798.66;4999756;28;66550;-36
2022/04/22 12:21:07;;;;;;;7.30;6.03;;;;;;;33.51;54.13;100795.19;4999667;28;69292;-33
2022/04/22 12:23:40;;;;;;;7.30;6.60;;;;;;;33.44;54.40;100786.34;5022085;28;65375;-35
2022/04/22 12:26:26;;;;;;;8.30;6.63;;;;;;;32.99;54.66;100719.00;5033074;28;70061;-36
2022/04/22 12:29:13;;;;;;;13.73;7.65;;;;;;;33.40;54.84;100802.28;5037156;28;65325;-35
2022/04/22 12:31:53;;;;;;;13.77;7.03;;;;;;;33.44;55.04;100794.50;5021634;28;69438;-35
2022/04/22 12:34:39;;;;;;;10.18;7.18;;;;;;;33.04;55.03;100747.19;5021809;28;65718;-35
2022/04/22 12:37:16;;;;;;;7.38;6.72;;;;;;;33.30;55.41;100785.78;5022216;28;69537;-36
2022/04/22 12:39:49;;;;;;;12.68;6.53;;;;;;;33.13;55.73;100769.38;5021985;28;66106;-36
2022/04/22 12:42:21;;;;;;;8.70;6.53;;;;;;;33.37;55.90;100819.09;5021458;28;70434;-35
2022/04/22 12:54:02;;;;;;;8.65;7.35;;;;;;;33.26;57.31;100833.53;5021487;28;70210;-34
2022/04/22 12:56:36;;;;;;;11.05;6.43;;;;;;;33.04;57.47;100782.50;5019960;28;66351;-34
2022/04/22 12:59:08;;;;;;;7.53;5.93;;;;;;;33.42;57.13;100826.53;5020993;28;70143;-34
2022/04/22 13:01:46;;;;;;;8.10;5.75;;;;;;;33.40;57.60;100817.78;5020938;28;66471;-34
2022/04/22 13:04:23;;;;;;;12.38;5.57;;;;;;;33.43;57.33;100820.03;5021191;28;70642;-35
2022/04/22 13:06:53;;;;;;;8.73;6.10;;;;;;;33.53;57.44;100836.59;5020709;28;66021;-35